Time;durP1;ratioP1;P1;durP2;ratioP2;P2;SDS_P1;SDS_P2;PMS_P1;PMS_P2;Temp;Humidity;BMP_temperature;BMP_pressure;BME280_temperature;BME280_humidity;BME280_pressure;Samples;Min_cycle;Max_cycle;Signal;HPM_P1;HPM_P2
2023/04/13 00:00:56;;;;;;;;;1.25;0.25;;;;;10.98;100.00;100058.00;5033172;28;55757;-74
2023/04/13 00:03:22;;;;;;;;;2.25;0.00;;;;;11.00;100.00;100061.50;5028763;28;60479;-73
2023/04/13 00:05:50;;;;;;;;;1.00;1.00;;;;;10.98;100.00;100059.78;5012164;28;45396;-75
2023/04/13 00:08:16;;;;;;;;;4.67;1.00;;;;;11.02;100.00;100074.72;5031330;28;45411;-74
2023/04/13 00:10:42;;;;;;;;;1.67;0.00;;;;;11.04;100.00;100061.53;5033675;28;45668;-73
2023/04/13 00:13:09;;;;;;;;;2.00;0.00;;;;;11.04;100.00;100069.44;5032000;28;54955;-73
2023/04/13 00:15:36;;;;;;;;;0.00;0.00;;;;;11.04;100.00;100072.97;5027800;28;45365;-74
2023/04/13 00:18:02;;;;;;;;;3.00;0.00;;;;;11.06;100.00;100076.47;5016927;28;45673;-75
2023/04/13 00:20:28;;;;;;;;;1.75;1.00;;;;;11.06;100.00;100075.59;5035021;28;46510;-73
2023/04/13 00:22:54;;;;;;;;;0.00;0.00;;;;;11.04;100.00;100049.19;5037032;28;45597;-73
2023/04/13 00:25:19;;;;;;;;;3.00;0.00;;;;;11.01;100.00;100051.81;5035194;28;45331;-73
2023/04/13 00:27:45;;;;;;;;;3.00;0.67;;;;;11.02;100.00;100049.19;5035291;28;45363;-75
2023/04/13 00:30:15;;;;;;;;;0.00;0.00;;;;;11.05;100.00;100050.06;5017085;28;45608;-75
2023/04/13 00:32:42;;;;;;;;;0.67;0.00;;;;;11.06;100.00;100057.09;5035246;28;45993;-74
2023/04/13 00:35:11;;;;;;;;;2.67;1.00;;;;;11.04;100.00;100061.53;5035786;28;45491;-73
2023/04/13 00:37:37;;;;;;;;;0.00;0.00;;;;;10.99;100.00;100072.97;5034967;28;45424;-73
2023/04/13 00:40:05;;;;;;;;;0.75;0.00;;;;;10.98;100.00;100067.69;5034280;28;46401;-73
2023/04/13 00:42:30;;;;;;;;;3.33;0.67;;;;;10.94;100.00;100053.63;5033423;28;45355;-75
2023/04/13 00:44:55;;;;;;;;;1.50;1.00;;;;;10.93;100.00;100074.75;5034756;28;63612;-73
2023/04/13 00:47:26;;;;;;;;;0.00;0.00;;;;;10.91;100.00;100069.47;5034226;28;52348;-75
2023/04/13 00:49:55;;;;;;;;;0.00;0.00;;;;;10.90;100.00;100082.69;5035014;28;45989;-74
2023/04/13 00:52:21;;;;;;;;;2.33;0.33;;;;;10.90;100.00;100077.41;5015732;28;45582;-74
2023/04/13 00:54:50;;;;;;;;;0.00;0.00;;;;;10.86;100.00;100073.00;5035114;28;45528;-74
2023/04/13 00:57:16;;;;;;;;;4.75;0.75;;;;;10.86;100.00;100067.72;5016875;28;45587;-73
2023/04/13 00:59:41;;;;;;;;;2.00;1.00;;;;;10.89;100.00;100079.16;5027474;28;46389;-74
2023/04/13 01:02:07;;;;;;;;;3.50;0.25;;;;;10.86;100.00;100065.06;5026788;28;45467;-73
2023/04/13 01:04:33;;;;;;;;;4.00;1.00;;;;;10.89;100.00;100079.16;5030506;28;49889;-73
2023/04/13 01:07:11;;;;;;;;;0.75;0.00;;;;;10.91;100.00;100077.38;5034357;28;45638;-73
2023/04/13 01:10:00;;;;;;;;;0.00;0.00;;;;;10.93;100.00;100080.03;5034779;28;46638;-74
2023/04/13 01:12:31;;;;;;;;;1.67;1.67;;;;;10.89;100.00;100073.88;5028765;28;45403;-74
2023/04/13 01:15:05;;;;;;;;;1.25;0.00;;;;;10.90;100.00;100086.19;5017243;28;45348;-73
2023/04/13 01:17:32;;;;;;;;;2.00;1.75;;;;;10.85;100.00;100077.41;5034955;28;45329;-72
2023/04/13 01:20:13;;;;;;;;;1.25;1.00;;;;;10.89;100.00;100068.59;5032021;28;46480;-73
2023/04/13 01:22:41;;;;;;;;;3.00;1.00;;;;;10.89;100.00;100071.25;5018647;28;45553;-73
2023/04/13 01:25:10;;;;;;;;;1.25;1.25;;;;;10.89;100.00;100065.97;5018295;28;45265;-74
2023/04/13 01:27:50;;;;;;;;;2.00;1.00;;;;;10.89;100.00;100063.31;5037323;28;45642;-74
2023/04/13 01:30:20;;;;;;;;;1.25;1.00;;;;;10.88;100.00;100069.47;5037828;28;45648;-75
2023/04/13 01:32:46;;;;;;;;;2.25;1.75;;;;;10.89;100.00;100057.16;5037803;28;45522;-75
2023/04/13 01:35:12;;;;;;;;;9.25;1.00;;;;;10.89;100.00;100062.44;5038604;28;45485;-74
2023/04/13 01:37:39;;;;;;;;;8.25;1.00;;;;;10.88;100.00;100077.41;5038120;28;45307;-73
2023/04/13 01:40:09;;;;;;;;;8.25;2.00;;;;;10.88;100.00;100069.47;5037756;28;46664;-75
2023/04/13 01:42:35;;;;;;;;;3.00;0.00;;;;;10.86;100.00;100083.56;5037724;28;45482;-74
2023/04/13 01:45:02;;;;;;;;;2.67;0.00;;;;;10.79;100.00;100082.69;5037637;28;45331;-74
2023/04/13 01:47:27;;;;;;;;;1.50;1.00;;;;;10.72;100.00;100084.47;5037744;28;45592;-74
2023/04/13 01:49:59;;;;;;;;;0.00;0.00;;;;;10.70;100.00;100086.22;5038086;28;46468;-73
2023/04/13 01:52:26;;;;;;;;;2.75;0.75;;;;;10.66;100.00;100089.78;5033815;28;45341;-73
2023/04/13 01:54:52;;;;;;;;;1.00;1.00;;;;;10.67;100.00;100103.84;5020916;28;45594;-72
2023/04/13 01:57:17;;;;;;;;;3.00;1.00;;;;;10.68;100.00;100110.88;5012013;28;45356;-74
2023/04/13 01:59:43;;;;;;;;;1.00;0.00;;;;;10.64;100.00;100101.19;5005862;28;61019;-73
2023/04/13 02:02:09;;;;;;;;;2.00;0.00;;;;;10.68;100.00;100101.19;5034123;28;45498;-74
2023/04/13 02:04:34;;;;;;;;;1.00;1.00;;;;;10.66;100.00;100105.63;5037501;28;45377;-75
2023/04/13 02:06:59;;;;;;;;;3.00;1.00;;;;;10.64;100.00;100104.72;5036348;28;45580;-74
2023/04/13 02:09:27;;;;;;;;;2.50;1.00;;;;;10.59;100.00;100106.47;5033749;28;60983;-72
2023/04/13 02:11:52;;;;;;;;;4.25;1.00;;;;;10.60;100.00;100094.16;5037661;28;45510;-72
2023/04/13 02:14:18;;;;;;;;;1.00;0.25;;;;;10.58;100.00;100109.13;5037388;28;45401;-74
2023/04/13 02:16:43;;;;;;;;;3.25;1.25;;;;;10.56;100.00;100110.91;5036871;28;53933;-75
2023/04/13 02:19:09;;;;;;;;;0.75;0.25;;;;;10.56;100.00;100121.47;5034454;28;45626;-73
2023/04/13 02:21:35;;;;;;;;;1.00;0.00;;;;;10.53;100.00;100121.44;5037681;28;45427;-73
2023/04/13 02:24:00;;;;;;;;;2.00;1.00;;;;;10.53;100.00;100134.66;5035089;28;45509;-73
2023/04/13 02:26:26;;;;;;;;;4.75;1.25;;;;;10.52;100.00;100133.78;5015672;28;45527;-74
2023/04/13 02:28:51;;;;;;;;;1.00;0.00;;;;;10.58;100.00;100135.53;5035147;28;46703;-74
2023/04/13 02:31:18;;;;;;;;;7.00;1.00;;;;;10.59;100.00;100134.63;5037292;28;45416;-73
2023/04/13 02:33:45;;;;;;;;;2.25;0.00;;;;;10.59;100.00;100130.25;5035894;28;45482;-74
2023/04/13 02:36:11;;;;;;;;;1.25;1.25;;;;;10.65;100.00;100138.19;5036937;28;45441;-72
2023/04/13 02:38:36;;;;;;;;;1.00;1.00;;;;;10.68;100.00;100138.16;5036830;28;52338;-74
2023/04/13 02:41:02;;;;;;;;;0.75;0.75;;;;;10.71;100.00;100138.19;5036679;28;45411;-74
2023/04/13 02:43:27;;;;;;;;;3.00;1.00;;;;;10.77;100.00;100150.50;5017877;28;45403;-73
2023/04/13 02:45:53;;;;;;;;;4.50;1.00;;;;;10.77;100.00;100146.97;5036238;28;45467;-73
2023/04/13 02:48:19;;;;;;;;;0.00;0.00;;;;;10.75;100.00;100158.38;5035798;28;46278;-75
2023/04/13 02:50:45;;;;;;;;;0.00;0.00;;;;;10.77;100.00;100161.06;5034086;28;45307;-73
2023/04/13 02:53:11;;;;;;;;;1.75;0.00;;;;;10.73;100.00;100162.81;5036081;28;45385;-74
2023/04/13 02:55:36;;;;;;;;;4.00;0.25;;;;;10.68;100.00;100151.38;5036646;28;45725;-74
2023/04/13 02:58:03;;;;;;;;;1.00;1.00;;;;;10.65;100.00;100166.31;5036461;28;45761;-73
2023/04/13 03:00:29;;;;;;;;;3.00;0.50;;;;;10.61;100.00;100154.91;5036233;28;45350;-74
2023/04/13 03:02:54;;;;;;;;;2.00;1.00;;;;;10.57;100.00;100157.53;5018981;28;45240;-74
2023/04/13 03:05:19;;;;;;;;;3.50;0.75;;;;;10.56;100.00;100147.84;5018969;28;45301;-73
2023/04/13 03:07:45;;;;;;;;;3.00;0.00;;;;;10.51;100.00;100150.50;5035716;28;63484;-75
2023/04/13 03:10:10;;;;;;;;;3.75;1.00;;;;;10.47;100.00;100146.09;5027895;28;45532;-74
2023/04/13 03:12:36;;;;;;;;;4.00;0.00;;;;;10.43;100.00;100152.22;5036418;28;45462;-74
2023/04/13 03:15:03;;;;;;;;;2.00;1.00;;;;;10.42;100.00;100135.53;5036331;28;45482;-74
2023/04/13 03:17:29;;;;;;;;;4.00;1.00;;;;;10.40;100.00;100157.53;5019217;28;45412;-75
2023/04/13 03:19:58;;;;;;;;;0.75;0.50;;;;;10.36;100.00;100151.34;5035827;28;45278;-73
2023/04/13 03:22:24;;;;;;;;;0.00;0.00;;;;;10.32;100.00;100149.59;5036648;28;45373;-75
2023/04/13 03:24:50;;;;;;;;;0.00;0.00;;;;;10.29;100.00;100143.44;5010918;28;45282;-75
2023/04/13 03:27:16;;;;;;;;;0.50;0.00;;;;;10.30;100.00;100155.75;5036309;28;46629;-75
2023/04/13 03:29:41;;;;;;;;;1.75;0.25;;;;;10.28;100.00;100163.69;5035047;28;45352;-74
2023/04/13 03:32:07;;;;;;;;;4.00;1.00;;;;;10.27;100.00;100168.94;5036650;28;45196;-74
2023/04/13 03:34:32;;;;;;;;;4.00;1.00;;;;;10.23;100.00;100153.13;5035606;28;45569;-73
2023/04/13 03:36:57;;;;;;;;;3.75;1.00;;;;;10.25;100.00;100147.84;5035429;28;45686;-74
2023/04/13 03:39:23;;;;;;;;;0.00;0.00;;;;;10.24;100.00;100172.47;5040850;28;61126;-75
2023/04/13 03:41:48;;;;;;;;;3.25;1.00;;;;;10.23;100.00;100168.94;5035288;28;45389;-74
2023/04/13 03:44:13;;;;;;;;;1.50;1.00;;;;;10.23;100.00;100168.03;5034714;28;60905;-75
2023/04/13 03:46:40;;;;;;;;;2.25;0.75;;;;;10.22;100.00;100171.53;5035570;28;45576;-73
2023/04/13 03:49:07;;;;;;;;;2.50;1.00;;;;;10.20;100.00;100176.81;5033667;28;45407;-75
2023/04/13 03:51:33;;;;;;;;;1.00;0.00;;;;;10.17;100.00;100168.91;5035799;28;45512;-75
2023/04/13 03:53:58;;;;;;;;;1.00;0.00;;;;;10.17;100.00;100175.91;5035593;28;46786;-74
2023/04/13 03:56:24;;;;;;;;;1.50;0.75;;;;;10.17;100.00;100175.91;5035052;28;54791;-74
2023/04/13 03:58:50;;;;;;;;;0.00;0.00;;;;;10.16;100.00;100182.06;5032219;28;45510;-74
2023/04/13 04:01:15;;;;;;;;;1.50;0.00;;;;;10.16;100.00;100187.34;5034496;28;45587;-74
2023/04/13 04:03:40;;;;;;;;;2.75;0.00;;;;;10.15;100.00;100175.91;5035218;28;53508;-74
2023/04/13 04:06:06;;;;;;;;;0.00;0.00;;;;;10.12;100.00;100193.47;5034999;28;45652;-74
2023/04/13 04:08:32;;;;;;;;;4.25;1.50;;;;;10.10;100.00;100177.66;5034902;28;45354;-74
2023/04/13 04:10:57;;;;;;;;;2.00;1.00;;;;;10.10;100.00;100190.84;5034263;28;61262;-75
2023/04/13 04:13:23;;;;;;;;;6.00;0.00;;;;;10.09;100.00;100190.84;5034669;28;60125;-74
2023/04/13 04:15:48;;;;;;;;;4.00;0.50;;;;;10.05;100.00;100181.16;5034811;28;59166;-74
2023/04/13 04:18:13;;;;;;;;;2.00;1.00;;;;;10.03;100.00;100197.00;5035271;28;45430;-74
2023/04/13 04:20:39;;;;;;;;;0.00;0.00;;;;;10.00;100.00;100199.63;4999790;28;45965;-75
2023/04/13 04:23:04;;;;;;;;;3.00;0.75;;;;;10.00;100.00;100198.72;5034841;28;45567;-74
2023/04/13 04:25:31;;;;;;;;;2.75;1.00;;;;;10.01;100.00;100208.41;5034749;28;46332;-74
2023/04/13 04:27:57;;;;;;;;;3.00;1.00;;;;;10.02;100.00;100210.19;5034841;28;45501;-74
2023/04/13 04:30:23;;;;;;;;;2.75;1.75;;;;;10.02;100.00;100208.44;5017138;28;45816;-74
2023/04/13 04:32:53;;;;;;;;;0.50;0.50;;;;;10.00;100.00;100209.28;5035308;28;45585;-75
2023/04/13 04:35:32;;;;;;;;;4.50;0.00;;;;;10.00;100.00;100217.19;5033633;28;45875;-73
2023/04/13 04:38:00;;;;;;;;;1.00;1.00;;;;;9.98;100.00;100212.81;5034284;28;45546;-74
2023/04/13 04:40:26;;;;;;;;;2.00;1.00;;;;;10.00;100.00;100219.84;5035251;28;45317;-74
2023/04/13 04:42:52;;;;;;;;;2.00;1.00;;;;;9.98;100.00;100226.00;5035026;28;45524;-73
2023/04/13 04:45:19;;;;;;;;;1.00;1.00;;;;;9.99;100.00;100226.88;5013846;28;46541;-74
2023/04/13 04:47:45;;;;;;;;;3.00;1.25;;;;;9.98;100.00;100227.75;5027584;28;45636;-74
2023/04/13 04:50:11;;;;;;;;;2.00;0.50;;;;;9.99;100.00;100240.06;5033308;28;45415;-74
2023/04/13 04:52:38;;;;;;;;;5.00;0.50;;;;;9.97;100.00;100239.19;5033256;28;45351;-73
2023/04/13 04:55:05;;;;;;;;;3.50;1.00;;;;;9.95;100.00;100239.16;5029988;28;46713;-73
2023/04/13 04:57:32;;;;;;;;;0.50;0.50;;;;;9.94;100.00;100236.53;5037666;28;45300;-74
2023/04/13 04:59:58;;;;;;;;;6.50;2.00;;;;;9.93;100.00;100250.59;5037795;28;45532;-74
2023/04/13 05:02:23;;;;;;;;;1.00;0.00;;;;;9.90;100.00;100238.25;5038321;28;45593;-73
2023/04/13 05:04:48;;;;;;;;;6.75;1.00;;;;;9.94;100.00;100242.66;5036929;28;46592;-74
2023/04/13 05:07:16;;;;;;;;;5.50;1.00;;;;;9.92;100.00;100246.19;5034793;28;64837;-76
2023/04/13 05:09:42;;;;;;;;;1.00;1.00;;;;;9.89;100.00;100252.31;5034481;28;45439;-75
2023/04/13 05:12:08;;;;;;;;;1.00;0.00;;;;;9.93;100.00;100266.41;5019055;28;45558;-73
2023/04/13 05:14:33;;;;;;;;;4.00;1.00;;;;;9.92;100.00;100280.47;5035469;28;45466;-73
2023/04/13 05:17:00;;;;;;;;;2.00;0.00;;;;;9.92;100.00;100267.28;5037914;28;45359;-73
2023/04/13 05:19:26;;;;;;;;;1.75;0.00;;;;;9.91;100.00;100284.00;5018278;28;45342;-73
2023/04/13 05:21:51;;;;;;;;;1.25;0.00;;;;;9.93;100.00;100291.03;5034678;28;45418;-73
2023/04/13 05:24:16;;;;;;;;;1.00;0.50;;;;;9.94;100.00;100303.31;5034619;28;45650;-73
2023/04/13 05:26:42;;;;;;;;;1.25;0.50;;;;;9.92;100.00;100293.66;5036350;28;45334;-73
2023/04/13 05:29:08;;;;;;;;;1.00;1.00;;;;;9.92;100.00;100298.94;5014242;28;45389;-73
2023/04/13 05:31:33;;;;;;;;;1.50;0.75;;;;;9.92;100.00;100294.53;5037656;28;45471;-73
2023/04/13 05:34:00;;;;;;;;;3.25;0.25;;;;;9.91;100.00;100298.06;5035956;28;46437;-73
2023/04/13 05:36:27;;;;;;;;;2.50;0.00;;;;;9.89;100.00;100291.00;5036840;28;45447;-74
2023/04/13 05:38:52;;;;;;;;;0.25;0.00;;;;;9.89;100.00;100296.25;5016366;28;45532;-74
2023/04/13 05:41:18;;;;;;;;;1.00;1.00;;;;;9.87;100.00;100312.09;5037153;28;45624;-73
2023/04/13 05:43:44;;;;;;;;;2.00;0.00;;;;;9.88;100.00;100305.94;5036473;28;45675;-74
2023/04/13 05:46:10;;;;;;;;;3.00;1.00;;;;;9.86;100.00;100315.59;5034861;28;45445;-73
2023/04/13 05:48:35;;;;;;;;;2.00;0.00;;;;;9.86;100.00;100315.59;5033592;28;45477;-74
2023/04/13 05:51:01;;;;;;;;;0.00;0.00;;;;;9.88;100.00;100311.22;5035086;28;45483;-74
2023/04/13 05:53:26;;;;;;;;;3.00;1.00;;;;;9.90;100.00;100316.47;5034439;28;46477;-73
2023/04/13 05:55:53;;;;;;;;;0.25;0.25;;;;;9.96;100.00;100327.97;5036304;28;45522;-74
2023/04/13 05:58:19;;;;;;;;;4.75;0.00;;;;;10.00;100.00;100320.06;5036255;28;45525;-73
2023/04/13 06:00:44;;;;;;;;;2.75;0.50;;;;;10.06;100.00;100320.97;5031314;28;45668;-73
2023/04/13 06:03:09;;;;;;;;;1.00;1.00;;;;;10.15;100.00;100331.56;5033869;28;67184;-73
2023/04/13 06:05:35;;;;;;;;;3.00;1.50;;;;;10.27;100.00;100335.16;5032737;28;63138;-73
2023/04/13 06:08:01;;;;;;;;;3.75;1.00;;;;;10.36;100.00;100336.09;5028538;28;45543;-73
2023/04/13 06:10:26;;;;;;;;;1.00;1.00;;;;;10.39;100.00;100333.47;5029087;28;45555;-73
2023/04/13 06:12:53;;;;;;;;;2.00;0.25;;;;;10.39;100.00;100325.56;5027972;28;45430;-74
2023/04/13 06:15:19;;;;;;;;;2.00;1.00;;;;;10.36;100.00;100314.09;5027721;28;45431;-73
2023/04/13 06:17:45;;;;;;;;;2.00;0.75;;;;;10.34;100.00;100327.28;5010841;28;46404;-73
2023/04/13 06:20:10;;;;;;;;;2.00;1.00;;;;;10.38;100.00;100333.44;5034537;28;45539;-73
2023/04/13 06:22:36;;;;;;;;;1.25;1.00;;;;;10.38;100.00;100331.69;5004588;28;48354;-73
2023/04/13 06:25:01;;;;;;;;;2.00;1.00;;;;;10.37;100.00;100326.41;5030938;28;45526;-73
2023/04/13 06:27:27;;;;;;;;;2.25;0.75;;;;;10.37;100.00;100335.19;5033772;28;45410;-73
2023/04/13 06:29:52;;;;;;;;;2.50;1.00;;;;;10.37;100.00;100339.59;5035590;28;45539;-73
2023/04/13 06:32:17;;;;;;;;;2.50;1.25;;;;;10.37;100.00;100343.13;5017360;28;45755;-73
2023/04/13 06:34:44;;;;;;;;;8.00;1.00;;;;;10.33;100.00;100333.41;5032538;28;68451;-73
2023/04/13 06:37:10;;;;;;;;;1.33;0.33;;;;;10.37;100.00;100350.16;5032058;28;45444;-73
2023/04/13 06:39:36;;;;;;;;;2.25;1.00;;;;;10.36;100.00;100344.00;5035363;28;45481;-73
2023/04/13 06:42:02;;;;;;;;;2.00;0.67;;;;;10.40;100.00;100348.44;5033158;28;47375;-73
2023/04/13 06:44:28;;;;;;;;;1.50;0.25;;;;;10.40;100.00;100353.69;5032818;28;45519;-73
2023/04/13 06:46:54;;;;;;;;;6.50;0.75;;;;;10.44;100.00;100349.31;5034469;28;60230;-73
2023/04/13 06:49:19;;;;;;;;;2.67;1.00;;;;;10.46;100.00;100353.72;5034640;28;45677;-70
2023/04/13 06:51:45;;;;;;;;;0.00;0.00;;;;;10.49;100.00;100351.09;5031963;28;46608;-72
2023/04/13 06:54:10;;;;;;;;;1.25;1.00;;;;;10.56;100.00;100348.47;5035822;28;45321;-75
2023/04/13 06:56:35;;;;;;;;;3.00;0.25;;;;;10.55;100.00;100355.53;5034438;28;45421;-73
2023/04/13 06:59:01;;;;;;;;;1.25;1.25;;;;;10.57;100.00;100355.53;5028525;28;45418;-74
2023/04/13 07:01:26;;;;;;;;;4.33;0.00;;;;;10.54;100.00;100352.84;5034311;28;67642;-73
2023/04/13 07:03:52;;;;;;;;;1.00;0.25;;;;;10.48;100.00;100351.06;5034790;28;45257;-72
2023/04/13 07:06:18;;;;;;;;;1.00;1.00;;;;;10.48;100.00;100349.31;5027333;28;45703;-73
2023/04/13 07:08:43;;;;;;;;;1.00;1.00;;;;;10.45;100.00;100351.09;5032797;28;47109;-72
2023/04/13 07:11:09;;;;;;;;;2.00;1.00;;;;;10.46;100.00;100358.13;5015142;28;47274;-72
2023/04/13 07:13:35;;;;;;;;;2.00;0.00;;;;;10.47;100.00;100362.53;5034053;28;45484;-73
2023/04/13 07:16:00;;;;;;;;;4.67;1.00;;;;;10.46;100.00;100359.00;5033494;28;45450;-70
2023/04/13 07:18:25;;;;;;;;;2.50;0.00;;;;;10.45;100.00;100361.66;5032477;28;45493;-70
2023/04/13 07:20:51;;;;;;;;;6.00;1.00;;;;;10.45;100.00;100365.16;5035376;28;46742;-70
2023/04/13 07:23:16;;;;;;;;;0.50;0.00;;;;;10.46;100.00;100363.41;5035539;28;45542;-72
2023/04/13 07:25:42;;;;;;;;;3.00;1.00;;;;;10.47;100.00;100371.31;5035043;28;45288;-72
2023/04/13 07:28:07;;;;;;;;;6.33;1.00;;;;;10.55;100.00;100367.84;5036113;28;45380;-72
2023/04/13 07:30:32;;;;;;;;;1.00;1.00;;;;;10.61;100.00;100381.06;5034725;28;47900;-72
2023/04/13 07:32:58;;;;;;;;;1.33;0.00;;;;;10.63;100.00;100371.38;5037918;28;63635;-72
2023/04/13 07:35:23;;;;;;;;;2.00;0.00;;;;;10.73;100.00;100375.81;5034770;28;54030;-71
2023/04/13 07:37:49;;;;;;;;;3.67;1.00;;;;;10.83;100.00;100382.88;5035830;28;45257;-72
2023/04/13 07:40:15;;;;;;;;;1.33;0.33;;;;;10.88;100.00;100373.22;5034162;28;45687;-72
2023/04/13 07:42:41;;;;;;;;;3.00;0.67;;;;;10.96;100.00;100371.44;5035427;28;45885;-72
2023/04/13 07:45:09;;;;;;;;;1.67;1.00;;;;;11.06;100.00;100376.75;5034073;28;45390;-73
2023/04/13 07:47:35;;;;;;;;;0.33;0.33;;;;;11.14;100.00;100380.31;5032318;28;45457;-71
2023/04/13 07:50:00;;;;;;;;;3.00;0.67;;;;;11.21;100.00;100384.72;5033296;28;46451;-70
2023/04/13 07:52:26;;;;;;;;;2.00;0.33;;;;;11.29;100.00;100380.31;5028293;28;45347;-72
2023/04/13 07:54:51;;;;;;;;;2.00;0.33;;;;;11.43;100.00;100390.91;5034442;28;45474;-70
2023/04/13 07:57:20;;;;;;;;;3.75;0.25;;;;;11.53;100.00;100405.88;5034224;28;57841;-69
2023/04/13 07:59:45;;;;;;;;;0.00;0.00;;;;;11.62;100.00;100399.72;5032615;28;46415;-71
2023/04/13 08:02:11;;;;;;;;;6.00;1.00;;;;;11.67;100.00;100392.69;5038016;28;45459;-71
2023/04/13 08:04:36;;;;;;;;;4.00;1.33;;;;;11.68;100.00;100408.53;5033719;28;45408;-71
2023/04/13 08:07:03;;;;;;;;;2.00;1.00;;;;;11.62;100.00;100405.00;5036562;28;47239;-70
2023/04/13 08:09:33;;;;;;;;;2.00;1.00;;;;;11.62;100.00;100405.00;5029973;28;46725;-70
2023/04/13 08:11:58;;;;;;;;;2.00;1.00;;;;;11.70;100.00;100405.88;5034820;28;45393;-71
2023/04/13 08:14:24;;;;;;;;;1.00;1.00;;;;;11.77;100.00;100412.91;5033783;28;45508;-71
2023/04/13 08:16:49;;;;;;;;;1.00;1.00;;;;;11.77;100.00;100413.81;5024998;28;45384;-71
2023/04/13 08:19:15;;;;;;;;;6.00;1.00;;;;;11.80;100.00;100418.22;5034906;28;45496;-71
2023/04/13 08:21:40;;;;;;;;;9.00;1.00;;;;;11.85;100.00;100412.97;5014715;28;45627;-70
2023/04/13 08:24:06;;;;;;;;;3.00;0.00;;;;;11.93;100.00;100413.81;5030594;28;45550;-72
2023/04/13 08:26:31;;;;;;;;;5.33;1.00;;;;;11.89;100.00;100412.09;5036646;28;45206;-71
2023/04/13 08:28:56;;;;;;;;;7.33;1.00;;;;;11.85;100.00;100440.28;5010817;28;50160;-71
2023/04/13 08:31:22;;;;;;;;;3.67;1.00;;;;;11.85;100.00;100421.78;5031435;28;45426;-71
2023/04/13 08:33:47;;;;;;;;;5.00;2.00;;;;;11.84;100.00;100419.16;5033269;28;45490;-71
2023/04/13 08:36:12;;;;;;;;;4.33;1.33;;;;;11.89;100.00;100417.38;5037919;28;45613;-71
2023/04/13 08:38:38;;;;;;;;;1.00;1.00;;;;;11.90;100.00;100414.72;5035791;28;46488;-71
2023/04/13 08:41:03;;;;;;;;;2.67;1.00;;;;;11.93;100.00;100420.03;5037179;28;50648;-71
2023/04/13 08:43:32;;;;;;;;;6.67;1.00;;;;;11.93;100.00;100417.38;5037222;28;45586;-71
2023/04/13 08:45:57;;;;;;;;;2.33;1.00;;;;;11.95;100.00;100423.53;5038491;28;45543;-71
2023/04/13 08:48:23;;;;;;;;;0.00;0.00;;;;;11.95;100.00;100420.88;5037271;28;45619;-71
2023/04/13 08:50:52;;;;;;;;;3.00;2.00;;;;;12.07;100.00;100442.03;5036639;28;45600;-71
2023/04/13 08:53:18;;;;;;;;;3.67;1.00;;;;;12.13;100.00;100421.72;5032880;28;45381;-72
2023/04/13 08:55:47;;;;;;;;;3.00;2.00;;;;;12.20;100.00;100428.78;5035576;28;47007;-71
2023/04/13 08:58:15;;;;;;;;;5.00;1.00;;;;;12.25;100.00;100424.34;5018275;28;46438;-72
2023/04/13 09:00:42;;;;;;;;;6.00;2.00;;;;;12.27;100.00;100427.88;5034485;28;45391;-73
2023/04/13 09:03:10;;;;;;;;;4.00;1.00;;;;;12.28;100.00;100419.94;5015740;28;45653;-72
2023/04/13 09:05:41;;;;;;;;;2.33;0.33;;;;;12.33;100.00;100419.94;5034907;28;45857;-71
2023/04/13 09:08:07;;;;;;;;;4.33;1.00;;;;;12.37;100.00;100442.00;5038650;28;47019;-71
2023/04/13 09:10:33;;;;;;;;;1.00;1.00;;;;;12.34;100.00;100434.91;5036910;28;45582;-71
2023/04/13 09:12:59;;;;;;;;;3.00;1.00;;;;;12.33;100.00;100436.69;5018347;28;45537;-70
2023/04/13 09:15:25;;;;;;;;;2.00;0.67;;;;;12.35;100.00;100428.72;5034719;28;45497;-70
2023/04/13 09:17:51;;;;;;;;;1.00;0.00;;;;;12.36;100.00;100441.13;5036082;28;62243;-69
2023/04/13 09:20:21;;;;;;;;;5.67;1.00;;;;;12.39;100.00;100432.25;5037362;28;45454;-70
2023/04/13 09:22:50;;;;;;;;;2.67;1.00;;;;;12.49;100.00;100434.00;5036395;28;45499;-69
2023/04/13 09:25:27;;;;;;;;;2.00;1.00;;;;;12.61;100.00;100425.13;5038392;28;45475;-70
2023/04/13 09:27:53;;;;;;;;;1.33;0.00;;;;;12.71;100.00;100427.72;5035088;28;47572;-70
2023/04/13 09:30:20;;;;;;;;;3.00;0.00;;;;;12.80;100.00;100433.00;5038464;28;45350;-71
2023/04/13 09:32:46;;;;;;;;;2.33;0.00;;;;;12.90;100.00;100431.19;5037028;28;45189;-71
2023/04/13 09:35:12;;;;;;;;;4.00;2.00;;;;;12.91;100.00;100427.66;5019551;28;45416;-71
2023/04/13 09:37:41;;;;;;;;;3.00;0.00;;;;;12.97;100.00;100439.97;5033599;28;45440;-70
2023/04/13 09:40:11;;;;;;;;;4.00;0.00;;;;;12.98;100.00;100426.72;5035570;28;45375;-71
2023/04/13 09:42:42;;;;;;;;;6.00;0.00;;;;;13.01;100.00;100425.84;5035824;28;45519;-70
2023/04/13 09:45:08;;;;;;;;;4.33;1.00;;;;;13.04;100.00;100439.94;5025551;28;45479;-70
2023/04/13 09:47:37;;;;;;;;;0.00;0.00;;;;;13.09;100.00;100426.66;5035561;28;46767;-71
2023/04/13 09:50:04;;;;;;;;;3.00;1.00;;;;;13.11;100.00;100432.84;5039379;28;46019;-70
2023/04/13 09:52:29;;;;;;;;;2.00;0.67;;;;;13.20;100.00;100439.84;5015352;28;45393;-70
2023/04/13 09:54:57;;;;;;;;;2.67;1.00;;;;;13.33;100.00;100437.16;5016506;28;45655;-70
2023/04/13 09:57:29;;;;;;;;;4.00;1.00;;;;;13.51;98.70;100424.66;5032652;28;46414;-71
2023/04/13 09:59:56;;;;;;;;;1.00;1.00;;;;;13.57;97.42;100416.63;5033286;28;45505;-71
2023/04/13 10:02:22;;;;;;;;;2.67;0.33;;;;;13.66;97.25;100418.34;5030320;28;45657;-69
2023/04/13 10:04:48;;;;;;;;;1.00;1.00;;;;;13.75;95.88;100420.94;5036323;28;45387;-70
2023/04/13 10:07:13;;;;;;;;;4.67;1.00;;;;;13.75;95.07;100426.25;5034209;28;47097;-73
2023/04/13 10:09:40;;;;;;;;;3.33;1.00;;;;;13.69;94.25;100432.47;5032833;28;45511;-72
2023/04/13 10:12:10;;;;;;;;;1.33;1.00;;;;;13.63;91.65;100427.19;5035856;28;46081;-70
2023/04/13 10:14:38;;;;;;;;;3.00;1.00;;;;;13.56;91.18;100420.19;5018939;28;46219;-70
2023/04/13 10:17:18;;;;;;;;;1.33;0.00;;;;;13.62;92.57;100413.06;5036426;28;46521;-70
2023/04/13 10:19:49;;;;;;;;;1.00;0.00;;;;;13.67;91.31;100418.31;5034994;28;45567;-71
2023/04/13 10:24:51;;;;;;;;;1.33;0.00;;;;;13.75;92.92;100416.50;4975965;28;46825;-72
2023/04/13 10:27:21;;;;;;;;;1.00;1.00;;;;;13.87;92.36;100407.53;4959563;28;47511;-73
2023/04/13 10:29:47;;;;;;;;;1.00;1.00;;;;;13.99;92.43;100423.34;4976924;28;45518;-71
2023/04/13 10:32:23;;;;;;;;;2.33;0.00;;;;;14.10;89.62;100404.66;4981996;28;45425;-70
2023/04/13 10:34:49;;;;;;;;;0.00;0.00;;;;;14.28;87.57;100403.59;4976988;28;45531;-70
2023/04/13 10:37:18;;;;;;;;;2.33;0.00;;;;;14.35;88.03;100405.28;4970727;28;45493;-71
2023/04/13 10:39:44;;;;;;;;;0.00;0.00;;;;;14.34;82.99;100419.47;4978147;28;45531;-70
2023/04/13 10:42:11;;;;;;;;;0.00;0.00;;;;;14.22;81.91;100399.25;4979313;28;45484;-70
2023/04/13 10:44:54;;;;;;;;;0.00;0.00;;;;;14.14;80.67;100406.38;4976118;28;45580;-71
2023/04/13 10:47:20;;;;;;;;;0.00;0.00;;;;;14.15;82.53;100402.84;4977459;28;50272;-71
2023/04/13 10:49:47;;;;;;;;;0.33;0.33;;;;;14.24;81.89;100408.06;4975673;28;66884;-71
2023/04/13 10:52:14;;;;;;;;;1.33;0.00;;;;;14.37;82.19;100408.78;4976881;28;45563;-70
2023/04/13 10:54:40;;;;;;;;;0.67;0.67;;;;;14.55;80.54;100410.41;4975150;28;45432;-70
2023/04/13 10:57:07;;;;;;;;;2.00;0.00;;;;;14.66;81.77;100419.13;4976242;28;46422;-70
2023/04/13 10:59:41;;;;;;;;;1.67;1.67;;;;;14.75;79.59;100416.31;4975434;28;45563;-70
2023/04/13 11:02:13;;;;;;;;;0.00;0.00;;;;;14.75;77.19;100429.63;4975974;28;45358;-71
2023/04/13 11:04:48;;;;;;;;;2.00;1.00;;;;;14.68;77.58;100420.84;4977203;28;45520;-70
2023/04/13 11:07:18;;;;;;;;;1.00;1.00;;;;;14.56;76.80;100425.44;4955648;28;46385;-70
2023/04/13 11:09:44;;;;;;;;;0.00;0.00;;;;;14.42;77.34;100431.75;4974754;28;45500;-70
2023/04/13 11:12:16;;;;;;;;;2.33;0.00;;;;;14.26;78.61;100443.44;4974780;28;45478;-70
2023/04/13 11:14:46;;;;;;;;;3.00;1.00;;;;;14.06;79.58;100438.34;4956042;28;45576;-70
2023/04/13 11:17:13;;;;;;;;;0.00;0.00;;;;;13.96;80.51;100430.47;4974073;28;45827;-71
2023/04/13 11:19:46;;;;;;;;;1.00;1.00;;;;;13.95;82.07;100431.34;4976052;28;45449;-71